sensor_id;sensor_type;location;lat;lon;timestamp;pressure;altitude;pressure_sealevel;temperature;humidity
42771;BME280;28426;42.872;25.314;2024-01-15T00:02:00;96444.69;;;-7.80;82.03
42771;BME280;28426;42.872;25.314;2024-01-15T00:04:30;96439.50;;;-7.80;81.65
42771;BME280;28426;42.872;25.314;2024-01-15T00:07:01;96440.50;;;-7.82;81.09
42771;BME280;28426;42.872;25.314;2024-01-15T00:09:32;96445.22;;;-7.89;80.89
42771;BME280;28426;42.872;25.314;2024-01-15T00:12:04;96442.88;;;-7.94;80.88
42771;BME280;28426;42.872;25.314;2024-01-15T00:14:35;96436.19;;;-7.98;81.69
42771;BME280;28426;42.872;25.314;2024-01-15T00:17:08;96439.63;;;-7.97;82.53
42771;BME280;28426;42.872;25.314;2024-01-15T00:19:39;96443.72;;;-7.93;82.80
42771;BME280;28426;42.872;25.314;2024-01-15T00:22:10;96441.19;;;-7.95;82.64
42771;BME280;28426;42.872;25.314;2024-01-15T00:24:40;96442.94;;;-7.95;82.11
42771;BME280;28426;42.872;25.314;2024-01-15T00:27:11;96447.56;;;-8.01;81.78
42771;BME280;28426;42.872;25.314;2024-01-15T00:29:42;96448.66;;;-8.05;81.35
42771;BME280;28426;42.872;25.314;2024-01-15T00:32:18;96438.63;;;-8.11;81.76
42771;BME280;28426;42.872;25.314;2024-01-15T00:34:49;96437.88;;;-8.13;81.91
42771;BME280;28426;42.872;25.314;2024-01-15T00:37:20;96436.22;;;-8.14;81.67
42771;BME280;28426;42.872;25.314;2024-01-15T00:39:51;96433.78;;;-8.17;82.02
42771;BME280;28426;42.872;25.314;2024-01-15T00:42:21;96432.78;;;-8.15;82.91
42771;BME280;28426;42.872;25.314;2024-01-15T00:44:52;96434.38;;;-8.12;83.23
42771;BME280;28426;42.872;25.314;2024-01-15T00:47:26;96417.53;;;-8.19;83.06
42771;BME280;28426;42.872;25.314;2024-01-15T00:49:57;96423.50;;;-8.03;83.29
42771;BME280;28426;42.872;25.314;2024-01-15T00:52:30;96413.81;;;-7.99;82.68
42771;BME280;28426;42.872;25.314;2024-01-15T00:55:01;96417.41;;;-8.02;81.92
42771;BME280;28426;42.872;25.314;2024-01-15T00:57:31;96411.47;;;-8.04;81.66
42771;BME280;28426;42.872;25.314;2024-01-15T01:00:03;96406.41;;;-8.05;81.52
42771;BME280;28426;42.872;25.314;2024-01-15T01:02:36;96400.53;;;-8.09;81.69
42771;BME280;28426;42.872;25.314;2024-01-15T01:05:07;96395.44;;;-8.10;82.69
42771;BME280;28426;42.872;25.314;2024-01-15T01:07:38;96396.13;;;-8.07;82.94
42771;BME280;28426;42.872;25.314;2024-01-15T01:10:09;96396.03;;;-8.05;83.00
42771;BME280;28426;42.872;25.314;2024-01-15T01:12:40;96397.63;;;-8.03;83.01
42771;BME280;28426;42.872;25.314;2024-01-15T01:15:10;96400.09;;;-8.01;82.72
42771;BME280;28426;42.872;25.314;2024-01-15T01:17:44;96394.09;;;-8.02;82.66
42771;BME280;28426;42.872;25.314;2024-01-15T01:20:15;96393.44;;;-8.05;81.29
42771;BME280;28426;42.872;25.314;2024-01-15T01:22:46;96392.97;;;-8.12;81.33
42771;BME280;28426;42.872;25.314;2024-01-15T01:25:16;96391.78;;;-8.22;80.57
42771;BME280;28426;42.872;25.314;2024-01-15T01:27:47;96378.06;;;-8.39;81.16
42771;BME280;28426;42.872;25.314;2024-01-15T01:30:18;96380.47;;;-8.36;82.11
42771;BME280;28426;42.872;25.314;2024-01-15T01:32:52;96383.63;;;-8.31;82.82
42771;BME280;28426;42.872;25.314;2024-01-15T01:35:23;96364.41;;;-8.27;83.19
42771;BME280;28426;42.872;25.314;2024-01-15T01:37:53;96376.50;;;-8.11;84.01
42771;BME280;28426;42.872;25.314;2024-01-15T01:40:24;96364.69;;;-8.01;84.10
42771;BME280;28426;42.872;25.314;2024-01-15T01:42:54;96367.50;;;-7.89;83.38
42771;BME280;28426;42.872;25.314;2024-01-15T01:45:25;96366.59;;;-7.73;87.67
42771;BME280;28426;42.872;25.314;2024-01-15T01:47:59;96360.34;;;-7.55;87.82
42771;BME280;28426;42.872;25.314;2024-01-15T01:50:31;96355.06;;;-7.39;87.99
42771;BME280;28426;42.872;25.314;2024-01-15T01:53:02;96352.28;;;-7.21;84.02
42771;BME280;28426;42.872;25.314;2024-01-15T01:55:34;96351.75;;;-7.41;78.48
42771;BME280;28426;42.872;25.314;2024-01-15T01:58:06;96354.84;;;-7.65;78.85
42771;BME280;28426;42.872;25.314;2024-01-15T02:00:37;96350.75;;;-7.83;80.07
42771;BME280;28426;42.872;25.314;2024-01-15T02:03:11;96353.97;;;-7.94;81.13
42771;BME280;28426;42.872;25.314;2024-01-15T02:05:43;96340.47;;;-7.99;81.76
42771;BME280;28426;42.872;25.314;2024-01-15T02:08:14;96335.38;;;-8.01;82.68
42771;BME280;28426;42.872;25.314;2024-01-15T02:10:45;96331.88;;;-8.00;82.84
42771;BME280;28426;42.872;25.314;2024-01-15T02:13:16;96333.44;;;-7.97;82.89
42771;BME280;28426;42.872;25.314;2024-01-15T02:15:48;96332.44;;;-7.95;82.48
42771;BME280;28426;42.872;25.314;2024-01-15T02:18:21;96336.69;;;-7.94;82.29
42771;BME280;28426;42.872;25.314;2024-01-15T02:21:12;96328.59;;;-8.04;81.66
42771;BME280;28426;42.872;25.314;2024-01-15T02:23:45;96331.47;;;-8.08;81.79
42771;BME280;28426;42.872;25.314;2024-01-15T02:26:16;96324.91;;;-8.14;82.31
42771;BME280;28426;42.872;25.314;2024-01-15T02:28:48;96325.25;;;-8.20;82.09
42771;BME280;28426;42.872;25.314;2024-01-15T02:31:19;96316.00;;;-8.24;82.70
42771;BME280;28426;42.872;25.314;2024-01-15T02:33:49;96319.31;;;-8.22;82.66
42771;BME280;28426;42.872;25.314;2024-01-15T02:36:20;96314.91;;;-8.20;82.89
42771;BME280;28426;42.872;25.314;2024-01-15T02:38:54;96318.22;;;-8.18;83.04
42771;BME280;28426;42.872;25.314;2024-01-15T02:41:24;96321.56;;;-8.16;82.66
42771;BME280;28426;42.872;25.314;2024-01-15T02:43:55;96317.28;;;-8.17;82.60
42771;BME280;28426;42.872;25.314;2024-01-15T02:46:26;96321.66;;;-8.18;82.69
42771;BME280;28426;42.872;25.314;2024-01-15T02:48:57;96321.56;;;-8.16;82.80
42771;BME280;28426;42.872;25.314;2024-01-15T02:51:28;96322.31;;;-8.14;83.51
42771;BME280;28426;42.872;25.314;2024-01-15T02:54:01;96321.94;;;-8.08;84.23
42771;BME280;28426;42.872;25.314;2024-01-15T02:56:32;96314.78;;;-7.88;87.82
42771;BME280;28426;42.872;25.314;2024-01-15T02:59:02;96307.75;;;-7.71;87.37
42771;BME280;28426;42.872;25.314;2024-01-15T03:01:33;96314.53;;;-7.54;86.87
42771;BME280;28426;42.872;25.314;2024-01-15T03:04:04;96315.38;;;-7.39;86.34
42771;BME280;28426;42.872;25.314;2024-01-15T03:06:34;96315.34;;;-7.25;85.54
42771;BME280;28426;42.872;25.314;2024-01-15T03:09:08;96309.44;;;-7.12;84.98
42771;BME280;28426;42.872;25.314;2024-01-15T03:11:39;96309.50;;;-6.99;84.40
42771;BME280;28426;42.872;25.314;2024-01-15T03:14:10;96303.00;;;-6.92;83.65
42771;BME280;28426;42.872;25.314;2024-01-15T03:16:41;96308.31;;;-6.80;83.14
42771;BME280;28426;42.872;25.314;2024-01-15T03:19:11;96305.16;;;-6.71;82.92
42771;BME280;28426;42.872;25.314;2024-01-15T03:21:42;96305.59;;;-6.64;82.79
42771;BME280;28426;42.872;25.314;2024-01-15T03:24:16;96302.41;;;-6.55;82.10
42771;BME280;28426;42.872;25.314;2024-01-15T03:26:47;96291.75;;;-6.50;81.94
42771;BME280;28426;42.872;25.314;2024-01-15T03:29:17;96286.06;;;-6.43;81.60
42771;BME280;28426;42.872;25.314;2024-01-15T03:31:48;96290.84;;;-6.36;81.08
42771;BME280;28426;42.872;25.314;2024-01-15T03:34:19;96287.09;;;-6.32;81.13
42771;BME280;28426;42.872;25.314;2024-01-15T03:36:50;96284.22;;;-6.27;80.79
42771;BME280;28426;42.872;25.314;2024-01-15T03:39:23;96284.84;;;-6.24;80.59
42771;BME280;28426;42.872;25.314;2024-01-15T03:41:55;96286.31;;;-6.20;80.38
42771;BME280;28426;42.872;25.314;2024-01-15T03:44:25;96280.91;;;-6.17;80.27
42771;BME280;28426;42.872;25.314;2024-01-15T03:46:56;96291.13;;;-6.13;80.25
42771;BME280;28426;42.872;25.314;2024-01-15T03:49:27;96286.63;;;-6.11;79.80
42771;BME280;28426;42.872;25.314;2024-01-15T03:51:58;96287.56;;;-6.12;79.43
42771;BME280;28426;42.872;25.314;2024-01-15T03:54:33;96284.97;;;-6.12;79.23
42771;BME280;28426;42.872;25.314;2024-01-15T03:57:04;96280.72;;;-6.13;79.44
42771;BME280;28426;42.872;25.314;2024-01-15T03:59:35;96281.53;;;-6.13;79.50
42771;BME280;28426;42.872;25.314;2024-01-15T04:02:05;96278.13;;;-6.13;79.27
42771;BME280;28426;42.872;25.314;2024-01-15T04:04:36;96274.69;;;-6.14;79.59
42771;BME280;28426;42.872;25.314;2024-01-15T04:07:11;96280.72;;;-6.13;79.08
42771;BME280;28426;42.872;25.314;2024-01-15T04:09:44;96292.03;;;-6.14;78.67
42771;BME280;28426;42.872;25.314;2024-01-15T04:12:15;96283.63;;;-6.18;78.54
42771;BME280;28426;42.872;25.314;2024-01-15T04:14:46;96287.16;;;-6.19;78.78
42771;BME280;28426;42.872;25.314;2024-01-15T04:17:16;96282.91;;;-6.20;78.83
42771;BME280;28426;42.872;25.314;2024-01-15T04:19:49;96280.59;;;-6.25;78.46
42771;BME280;28426;42.872;25.314;2024-01-15T04:22:20;96273.00;;;-6.28;78.60
42771;BME280;28426;42.872;25.314;2024-01-15T04:24:53;96276.63;;;-6.31;78.64
42771;BME280;28426;42.872;25.314;2024-01-15T04:27:24;96271.53;;;-6.32;79.14
42771;BME280;28426;42.872;25.314;2024-01-15T04:29:55;96274.13;;;-6.32;78.81
42771;BME280;28426;42.872;25.314;2024-01-15T04:32:25;96260.53;;;-6.36;79.25
42771;BME280;28426;42.872;25.314;2024-01-15T04:34:56;96269.69;;;-6.30;79.37
42771;BME280;28426;42.872;25.314;2024-01-15T04:37:29;96262.50;;;-6.26;79.33
42771;BME280;28426;42.872;25.314;2024-01-15T04:40:03;96255.22;;;-6.34;79.02
42771;BME280;28426;42.872;25.314;2024-01-15T04:42:34;96265.84;;;-6.24;78.99
42771;BME280;28426;42.872;25.314;2024-01-15T04:45:05;96261.47;;;-6.24;79.01
42771;BME280;28426;42.872;25.314;2024-01-15T04:47:36;96251.84;;;-6.22;79.02
42771;BME280;28426;42.872;25.314;2024-01-15T04:50:08;96250.88;;;-6.21;79.05
42771;BME280;28426;42.872;25.314;2024-01-15T04:52:38;96253.28;;;-6.18;79.04
42771;BME280;28426;42.872;25.314;2024-01-15T04:55:09;96249.75;;;-6.17;79.04
42771;BME280;28426;42.872;25.314;2024-01-15T04:57:40;96249.66;;;-6.15;78.64
42771;BME280;28426;42.872;25.314;2024-01-15T05:00:12;96257.22;;;-6.12;78.57
42771;BME280;28426;42.872;25.314;2024-01-15T05:02:43;96261.38;;;-6.09;78.77
42771;BME280;28426;42.872;25.314;2024-01-15T05:05:14;96263.25;;;-6.11;78.12
42771;BME280;28426;42.872;25.314;2024-01-15T05:07:44;96265.84;;;-6.11;78.33
42771;BME280;28426;42.872;25.314;2024-01-15T05:10:18;96263.34;;;-6.13;78.30
42771;BME280;28426;42.872;25.314;2024-01-15T05:12:49;96255.56;;;-6.13;78.47
42771;BME280;28426;42.872;25.314;2024-01-15T05:15:20;96251.22;;;-6.12;78.64
42771;BME280;28426;42.872;25.314;2024-01-15T05:17:51;96252.03;;;-6.12;78.64
42771;BME280;28426;42.872;25.314;2024-01-15T05:20:22;96253.81;;;-6.12;78.51
42771;BME280;28426;42.872;25.314;2024-01-15T05:22:52;96241.63;;;-6.12;78.57
42771;BME280;28426;42.872;25.314;2024-01-15T05:25:26;96238.94;;;-6.10;78.43
42771;BME280;28426;42.872;25.314;2024-01-15T05:27:56;96239.69;;;-6.08;78.91
42771;BME280;28426;42.872;25.314;2024-01-15T05:30:27;96235.22;;;-6.06;78.77
42771;BME280;28426;42.872;25.314;2024-01-15T05:32:58;96234.16;;;-6.04;78.52
42771;BME280;28426;42.872;25.314;2024-01-15T05:35:30;96220.38;;;-6.04;78.44
42771;BME280;28426;42.872;25.314;2024-01-15T05:38:01;96212.41;;;-6.03;78.56
42771;BME280;28426;42.872;25.314;2024-01-15T05:40:34;96207.13;;;-6.01;78.33
42771;BME280;28426;42.872;25.314;2024-01-15T05:43:05;96198.28;;;-5.98;78.43
42771;BME280;28426;42.872;25.314;2024-01-15T05:45:37;96202.56;;;-5.97;78.30
42771;BME280;28426;42.872;25.314;2024-01-15T05:48:08;96200.78;;;-5.97;78.55
42771;BME280;28426;42.872;25.314;2024-01-15T05:50:39;96199.84;;;-5.96;78.53
42771;BME280;28426;42.872;25.314;2024-01-15T05:53:10;96197.25;;;-5.96;78.54
42771;BME280;28426;42.872;25.314;2024-01-15T05:55:43;96207.53;;;-5.94;78.41
42771;BME280;28426;42.872;25.314;2024-01-15T05:58:14;96194.66;;;-5.96;78.53
42771;BME280;28426;42.872;25.314;2024-01-15T06:00:45;96202.34;;;-5.94;78.53
42771;BME280;28426;42.872;25.314;2024-01-15T06:03:17;96197.03;;;-5.93;78.82
42771;BME280;28426;42.872;25.314;2024-01-15T06:05:48;96192.78;;;-5.94;78.58
42771;BME280;28426;42.872;25.314;2024-01-15T06:08:19;96191.13;;;-5.95;78.23
42771;BME280;28426;42.872;25.314;2024-01-15T06:10:52;96190.28;;;-5.95;78.15
42771;BME280;28426;42.872;25.314;2024-01-15T06:13:27;96196.34;;;-5.95;78.47
42771;BME280;28426;42.872;25.314;2024-01-15T06:15:57;96181.34;;;-5.91;78.90
42771;BME280;28426;42.872;25.314;2024-01-15T06:18:28;96182.72;;;-5.85;79.03
42771;BME280;28426;42.872;25.314;2024-01-15T06:20:59;96180.63;;;-5.80;79.07
42771;BME280;28426;42.872;25.314;2024-01-15T06:23:30;96190.56;;;-5.74;79.29
42771;BME280;28426;42.872;25.314;2024-01-15T06:26:03;96180.69;;;-5.69;78.84
42771;BME280;28426;42.872;25.314;2024-01-15T06:28:34;96182.88;;;-5.62;78.73
42771;BME280;28426;42.872;25.314;2024-01-15T06:31:06;96172.97;;;-5.57;79.11
42771;BME280;28426;42.872;25.314;2024-01-15T06:33:38;96174.22;;;-5.50;78.54
42771;BME280;28426;42.872;25.314;2024-01-15T06:36:09;96169.53;;;-5.45;78.60
42771;BME280;28426;42.872;25.314;2024-01-15T06:38:40;96182.09;;;-5.39;78.52
42771;BME280;28426;42.872;25.314;2024-01-15T06:41:13;96173.72;;;-5.31;78.60
42771;BME280;28426;42.872;25.314;2024-01-15T06:43:44;96174.97;;;-5.23;78.74
42771;BME280;28426;42.872;25.314;2024-01-15T06:46:20;96178.91;;;-5.18;78.53
42771;BME280;28426;42.872;25.314;2024-01-15T06:48:51;96179.50;;;-5.14;78.56
42771;BME280;28426;42.872;25.314;2024-01-15T06:51:22;96180.84;;;-5.08;78.18
42771;BME280;28426;42.872;25.314;2024-01-15T06:53:53;96190.09;;;-5.04;78.20
42771;BME280;28426;42.872;25.314;2024-01-15T06:56:26;96188.00;;;-4.99;78.24
42771;BME280;28426;42.872;25.314;2024-01-15T06:58:57;96176.31;;;-4.93;78.21
42771;BME280;28426;42.872;25.314;2024-01-15T07:01:27;96175.84;;;-4.87;78.10
42771;BME280;28426;42.872;25.314;2024-01-15T07:03:58;96169.13;;;-4.78;78.34
42771;BME280;28426;42.872;25.314;2024-01-15T07:06:29;96168.47;;;-4.69;78.41
42771;BME280;28426;42.872;25.314;2024-01-15T07:09:00;96165.91;;;-4.57;78.36
42771;BME280;28426;42.872;25.314;2024-01-15T07:11:34;96163.09;;;-4.43;78.54
42771;BME280;28426;42.872;25.314;2024-01-15T07:14:04;96157.44;;;-4.25;78.57
42771;BME280;28426;42.872;25.314;2024-01-15T07:16:35;96161.03;;;-4.03;78.42
42771;BME280;28426;42.872;25.314;2024-01-15T07:19:07;96154.28;;;-3.83;78.57
42771;BME280;28426;42.872;25.314;2024-01-15T07:21:37;96157.44;;;-3.57;77.94
42771;BME280;28426;42.872;25.314;2024-01-15T07:24:11;96164.19;;;-3.31;77.75
42771;BME280;28426;42.872;25.314;2024-01-15T07:26:44;96156.03;;;-3.05;77.57
42771;BME280;28426;42.872;25.314;2024-01-15T07:29:15;96162.75;;;-2.80;77.09
42771;BME280;28426;42.872;25.314;2024-01-15T07:31:48;96160.59;;;-2.53;76.72
42771;BME280;28426;42.872;25.314;2024-01-15T07:34:20;96150.88;;;-2.30;76.66
42771;BME280;28426;42.872;25.314;2024-01-15T07:36:51;96142.88;;;-2.07;76.31
42771;BME280;28426;42.872;25.314;2024-01-15T07:39:21;96142.69;;;-1.84;75.57
42771;BME280;28426;42.872;25.314;2024-01-15T07:41:55;96131.22;;;-1.62;74.84
42771;BME280;28426;42.872;25.314;2024-01-15T07:44:26;96131.13;;;-1.40;72.65
42771;BME280;28426;42.872;25.314;2024-01-15T07:46:57;96128.44;;;-1.19;72.51
42771;BME280;28426;42.872;25.314;2024-01-15T07:49:27;96129.28;;;-0.99;71.55
42771;BME280;28426;42.872;25.314;2024-01-15T07:51:58;96130.66;;;-0.75;72.18
42771;BME280;28426;42.872;25.314;2024-01-15T07:54:29;96131.03;;;-0.50;71.39
42771;BME280;28426;42.872;25.314;2024-01-15T07:57:03;96128.66;;;-0.23;71.27
42771;BME280;28426;42.872;25.314;2024-01-15T07:59:35;96119.06;;;0.05;71.52
42771;BME280;28426;42.872;25.314;2024-01-15T08:02:06;96130.25;;;0.35;70.00
42771;BME280;28426;42.872;25.314;2024-01-15T08:04:37;96125.69;;;0.65;70.61
42771;BME280;28426;42.872;25.314;2024-01-15T08:07:08;96128.00;;;0.97;68.40
42771;BME280;28426;42.872;25.314;2024-01-15T08:09:40;96120.56;;;1.28;68.85
42771;BME280;28426;42.872;25.314;2024-01-15T08:12:14;96115.06;;;1.58;68.34
42771;BME280;28426;42.872;25.314;2024-01-15T08:14:45;96112.16;;;1.88;66.84
42771;BME280;28426;42.872;25.314;2024-01-15T08:17:15;96107.34;;;2.18;66.59
42771;BME280;28426;42.872;25.314;2024-01-15T08:19:46;96102.72;;;2.46;66.07
42771;BME280;28426;42.872;25.314;2024-01-15T08:22:17;96099.03;;;2.74;65.37
42771;BME280;28426;42.872;25.314;2024-01-15T08:24:48;96101.72;;;2.99;63.42
42771;BME280;28426;42.872;25.314;2024-01-15T08:27:22;96097.63;;;3.21;64.88
42771;BME280;28426;42.872;25.314;2024-01-15T08:29:52;96099.78;;;3.43;64.70
42771;BME280;28426;42.872;25.314;2024-01-15T08:32:23;96097.63;;;3.63;64.47
42771;BME280;28426;42.872;25.314;2024-01-15T08:34:54;96106.66;;;3.85;63.66
42771;BME280;28426;42.872;25.314;2024-01-15T08:37:25;96106.31;;;4.05;62.94
42771;BME280;28426;42.872;25.314;2024-01-15T08:39:56;96102.47;;;4.24;60.78
42771;BME280;28426;42.872;25.314;2024-01-15T08:42:29;96105.72;;;4.43;59.84
42771;BME280;28426;42.872;25.314;2024-01-15T08:45:00;96102.00;;;4.61;59.33
42771;BME280;28426;42.872;25.314;2024-01-15T08:47:31;96092.69;;;4.73;57.86
42771;BME280;28426;42.872;25.314;2024-01-15T08:50:02;96101.88;;;4.86;59.18
42771;BME280;28426;42.872;25.314;2024-01-15T08:52:33;96090.25;;;4.95;60.04
42771;BME280;28426;42.872;25.314;2024-01-15T08:55:05;96087.22;;;5.06;59.76
42771;BME280;28426;42.872;25.314;2024-01-15T08:57:38;96075.25;;;5.19;59.61
42771;BME280;28426;42.872;25.314;2024-01-15T09:00:10;96081.75;;;5.31;57.44
42771;BME280;28426;42.872;25.314;2024-01-15T09:02:42;96070.56;;;5.44;58.02
42771;BME280;28426;42.872;25.314;2024-01-15T09:05:13;96069.78;;;5.59;58.75
42771;BME280;28426;42.872;25.314;2024-01-15T09:07:43;96058.94;;;5.69;58.39
42771;BME280;28426;42.872;25.314;2024-01-15T09:10:14;96061.16;;;5.80;57.02
42771;BME280;28426;42.872;25.314;2024-01-15T09:12:47;96057.59;;;5.88;55.87
42771;BME280;28426;42.872;25.314;2024-01-15T09:15:19;96068.28;;;5.95;53.70
42771;BME280;28426;42.872;25.314;2024-01-15T09:17:50;96045.53;;;6.00;54.71
42771;BME280;28426;42.872;25.314;2024-01-15T09:20:21;96043.38;;;6.04;53.66
42771;BME280;28426;42.872;25.314;2024-01-15T09:22:53;96042.41;;;6.05;52.78
42771;BME280;28426;42.872;25.314;2024-01-15T09:25:24;96028.16;;;6.06;52.20
42771;BME280;28426;42.872;25.314;2024-01-15T09:27:57;96024.47;;;6.07;53.14
42771;BME280;28426;42.872;25.314;2024-01-15T09:30:28;96028.16;;;6.06;51.00
42771;BME280;28426;42.872;25.314;2024-01-15T09:32:59;96016.91;;;6.04;50.95
42771;BME280;28426;42.872;25.314;2024-01-15T09:35:30;96015.25;;;6.03;50.42
42771;BME280;28426;42.872;25.314;2024-01-15T09:38:01;96004.00;;;6.01;49.78
42771;BME280;28426;42.872;25.314;2024-01-15T09:40:33;96002.34;;;6.00;50.26
42771;BME280;28426;42.872;25.314;2024-01-15T09:43:06;96000.69;;;5.99;50.62
42771;BME280;28426;42.872;25.314;2024-01-15T09:45:38;95989.31;;;5.98;49.78
42771;BME280;28426;42.872;25.314;2024-01-15T09:48:09;95982.16;;;5.99;50.17
42771;BME280;28426;42.872;25.314;2024-01-15T09:50:40;95973.22;;;6.00;50.75
42771;BME280;28426;42.872;25.314;2024-01-15T09:53:11;95972.88;;;6.03;50.30
42771;BME280;28426;42.872;25.314;2024-01-15T09:55:45;95968.03;;;6.07;50.34
42771;BME280;28426;42.872;25.314;2024-01-15T09:58:19;95960.56;;;6.10;49.12
42771;BME280;28426;42.872;25.314;2024-01-15T10:00:50;95951.25;;;6.14;48.99
42771;BME280;28426;42.872;25.314;2024-01-15T10:03:22;95943.72;;;6.18;47.89
42771;BME280;28426;42.872;25.314;2024-01-15T10:05:53;95925.63;;;6.22;47.86
42771;BME280;28426;42.872;25.314;2024-01-15T10:08:25;95923.63;;;6.24;46.25
42771;BME280;28426;42.872;25.314;2024-01-15T10:10:56;95911.19;;;6.24;45.67
42771;BME280;28426;42.872;25.314;2024-01-15T10:13:30;95905.88;;;6.24;45.67
42771;BME280;28426;42.872;25.314;2024-01-15T10:16:01;95903.72;;;6.28;46.35
42771;BME280;28426;42.872;25.314;2024-01-15T10:18:32;95894.75;;;6.29;47.00
42771;BME280;28426;42.872;25.314;2024-01-15T10:21:04;95884.16;;;6.29;46.51
42771;BME280;28426;42.872;25.314;2024-01-15T10:23:35;95879.47;;;6.31;45.33
42771;BME280;28426;42.872;25.314;2024-01-15T10:26:06;95885.41;;;6.33;45.88
42771;BME280;28426;42.872;25.314;2024-01-15T10:28:44;95883.78;;;6.32;45.57
42771;BME280;28426;42.872;25.314;2024-01-15T10:31:16;95880.72;;;6.35;45.67
42771;BME280;28426;42.872;25.314;2024-01-15T10:33:52;95881.38;;;6.37;45.21
42771;BME280;28426;42.872;25.314;2024-01-15T10:36:27;95879.34;;;6.39;45.27
42771;BME280;28426;42.872;25.314;2024-01-15T10:38:58;95874.69;;;6.41;44.66
42771;BME280;28426;42.872;25.314;2024-01-15T10:41:29;95874.94;;;6.47;45.42
42771;BME280;28426;42.872;25.314;2024-01-15T10:44:04;95877.47;;;6.55;45.58
42771;BME280;28426;42.872;25.314;2024-01-15T10:46:35;95873.50;;;6.66;43.33
42771;BME280;28426;42.872;25.314;2024-01-15T10:49:07;95867.47;;;6.79;44.55
42771;BME280;28426;42.872;25.314;2024-01-15T10:51:38;95851.66;;;6.92;43.93
42771;BME280;28426;42.872;25.314;2024-01-15T10:54:10;95855.84;;;7.09;44.55
42771;BME280;28426;42.872;25.314;2024-01-15T10:56:42;95845.75;;;7.26;44.66
42771;BME280;28426;42.872;25.314;2024-01-15T10:59:16;95843.41;;;7.44;43.48
42771;BME280;28426;42.872;25.314;2024-01-15T11:01:50;95831.66;;;7.61;43.73
42771;BME280;28426;42.872;25.314;2024-01-15T11:04:22;95825.56;;;7.74;42.00
42771;BME280;28426;42.872;25.314;2024-01-15T11:06:56;95817.03;;;7.85;41.43
42771;BME280;28426;42.872;25.314;2024-01-15T11:09:27;95819.09;;;7.96;40.28
42771;BME280;28426;42.872;25.314;2024-01-15T11:12:07;95807.66;;;8.03;37.54
42771;BME280;28426;42.872;25.314;2024-01-15T11:14:46;95806.88;;;8.09;39.10
42771;BME280;28426;42.872;25.314;2024-01-15T11:17:18;95796.25;;;8.09;40.42
42771;BME280;28426;42.872;25.314;2024-01-15T11:19:50;95807.69;;;8.16;40.66
42771;BME280;28426;42.872;25.314;2024-01-15T11:22:48;95799.31;;;8.19;38.25
42771;BME280;28426;42.872;25.314;2024-01-15T11:25:19;95790.53;;;8.25;40.89
42771;BME280;28426;42.872;25.314;2024-01-15T11:27:51;95785.63;;;8.29;40.89
42771;BME280;28426;42.872;25.314;2024-01-15T11:30:27;95794.66;;;8.35;41.06
42771;BME280;28426;42.872;25.314;2024-01-15T11:32:58;95781.75;;;8.38;40.40
42771;BME280;28426;42.872;25.314;2024-01-15T11:35:49;95781.13;;;8.43;38.57
42771;BME280;28426;42.872;25.314;2024-01-15T11:38:27;95769.28;;;8.53;39.02
42771;BME280;28426;42.872;25.314;2024-01-15T11:40:58;95768.91;;;8.62;40.24
42771;BME280;28426;42.872;25.314;2024-01-15T11:43:30;95758.44;;;8.74;40.10
42771;BME280;28426;42.872;25.314;2024-01-15T11:46:04;95753.75;;;8.83;39.43
42771;BME280;28426;42.872;25.314;2024-01-15T11:48:43;95754.13;;;8.87;38.67
42771;BME280;28426;42.872;25.314;2024-01-15T11:51:17;95746.97;;;8.87;38.64
42771;BME280;28426;42.872;25.314;2024-01-15T11:53:53;95741.47;;;8.89;37.87
42771;BME280;28426;42.872;25.314;2024-01-15T11:56:29;95738.16;;;8.94;38.24
42771;BME280;28426;42.872;25.314;2024-01-15T11:59:01;95740.63;;;8.95;38.72
42771;BME280;28426;42.872;25.314;2024-01-15T12:01:34;95739.00;;;8.94;38.08
42771;BME280;28426;42.872;25.314;2024-01-15T12:04:05;95736.31;;;8.94;38.53
42771;BME280;28426;42.872;25.314;2024-01-15T12:06:36;95723.03;;;8.94;38.82
42771;BME280;28426;42.872;25.314;2024-01-15T12:09:07;95726.28;;;8.96;38.89
42771;BME280;28426;42.872;25.314;2024-01-15T12:11:42;95731.19;;;8.99;37.47
42771;BME280;28426;42.872;25.314;2024-01-15T12:14:17;95735.88;;;9.04;39.05
42771;BME280;28426;42.872;25.314;2024-01-15T12:16:50;95728.09;;;9.09;38.94
42771;BME280;28426;42.872;25.314;2024-01-15T12:19:21;95730.13;;;9.14;38.60
42771;BME280;28426;42.872;25.314;2024-01-15T12:21:52;95727.44;;;9.21;39.68
42771;BME280;28426;42.872;25.314;2024-01-15T12:24:23;95733.56;;;9.28;39.07
42771;BME280;28426;42.872;25.314;2024-01-15T12:26:54;95728.63;;;9.32;38.39
42771;BME280;28426;42.872;25.314;2024-01-15T12:29:25;95726.56;;;9.34;38.82
42771;BME280;28426;42.872;25.314;2024-01-15T12:31:58;95736.03;;;9.29;38.20
42771;BME280;28426;42.872;25.314;2024-01-15T12:34:29;95736.84;;;9.23;37.89
42771;BME280;28426;42.872;25.314;2024-01-15T12:37:01;95735.25;;;9.15;38.15
42771;BME280;28426;42.872;25.314;2024-01-15T12:39:33;95727.09;;;9.03;38.00
42771;BME280;28426;42.872;25.314;2024-01-15T12:42:05;95726.94;;;8.92;37.74
42771;BME280;28426;42.872;25.314;2024-01-15T12:44:36;95736.75;;;8.77;37.22
42771;BME280;28426;42.872;25.314;2024-01-15T12:47:09;95721.84;;;8.63;37.94
42771;BME280;28426;42.872;25.314;2024-01-15T12:49:41;95725.09;;;8.51;38.08
42771;BME280;28426;42.872;25.314;2024-01-15T12:52:12;95725.75;;;8.40;37.95
42771;BME280;28426;42.872;25.314;2024-01-15T12:54:43;95726.34;;;8.29;38.57
42771;BME280;28426;42.872;25.314;2024-01-15T12:57:14;95723.09;;;8.20;38.31
42771;BME280;28426;42.872;25.314;2024-01-15T12:59:45;95728.78;;;8.10;38.35
42771;BME280;28426;42.872;25.314;2024-01-15T13:02:19;95726.31;;;8.02;38.25
42771;BME280;28426;42.872;25.314;2024-01-15T13:04:49;95718.16;;;7.96;38.97
42771;BME280;28426;42.872;25.314;2024-01-15T13:07:21;95724.28;;;7.90;38.29
42771;BME280;28426;42.872;25.314;2024-01-15T13:09:52;95725.91;;;7.84;38.90
42771;BME280;28426;42.872;25.314;2024-01-15T13:12:23;95721.19;;;7.80;38.72
42771;BME280;28426;42.872;25.314;2024-01-15T13:14:54;95720.97;;;7.75;39.05
42771;BME280;28426;42.872;25.314;2024-01-15T13:17:28;95709.94;;;7.71;38.82
42771;BME280;28426;42.872;25.314;2024-01-15T13:19:59;95712.19;;;7.67;38.35